sensor_id;sensor_type;location;lat;lon;timestamp;temperature;humidity
38866;DHT22;62686;48.984;8.394;2023-04-25T00:00:25;6.90;99.90
38866;DHT22;62686;48.984;8.394;2023-04-25T00:02:57;6.80;99.90
38866;DHT22;62686;48.984;8.394;2023-04-25T00:05:26;6.80;99.90
38866;DHT22;62686;48.984;8.394;2023-04-25T00:07:57;6.90;99.90
38866;DHT22;62686;48.984;8.394;2023-04-25T00:10:25;6.90;99.90
38866;DHT22;62686;48.984;8.394;2023-04-25T00:15:30;7.10;99.90
38866;DHT22;62686;48.984;8.394;2023-04-25T00:18:00;7.20;99.90
38866;DHT22;62686;48.984;8.394;2023-04-25T00:20:29;7.30;99.90
38866;DHT22;62686;48.984;8.394;2023-04-25T00:22:58;7.40;99.90
38866;DHT22;62686;48.984;8.394;2023-04-25T00:25:26;7.60;99.90
38866;DHT22;62686;48.984;8.394;2023-04-25T00:27:56;7.60;99.90
38866;DHT22;62686;48.984;8.394;2023-04-25T00:30:24;7.80;99.90
38866;DHT22;62686;48.984;8.394;2023-04-25T00:32:53;7.90;99.90
38866;DHT22;62686;48.984;8.394;2023-04-25T00:35:23;8.00;99.90
38866;DHT22;62686;48.984;8.394;2023-04-25T00:37:51;8.00;99.90
38866;DHT22;62686;48.984;8.394;2023-04-25T00:40:20;8.00;99.90
38866;DHT22;62686;48.984;8.394;2023-04-25T00:42:50;8.00;99.90
38866;DHT22;62686;48.984;8.394;2023-04-25T00:45:20;8.00;99.90
38866;DHT22;62686;48.984;8.394;2023-04-25T00:47:48;8.00;99.90
38866;DHT22;62686;48.984;8.394;2023-04-25T00:50:18;7.90;99.90
38866;DHT22;62686;48.984;8.394;2023-04-25T00:52:48;7.90;99.90
38866;DHT22;62686;48.984;8.394;2023-04-25T00:55:18;7.90;99.90
38866;DHT22;62686;48.984;8.394;2023-04-25T00:57:47;7.90;99.90
38866;DHT22;62686;48.984;8.394;2023-04-25T01:00:46;7.90;99.90
38866;DHT22;62686;48.984;8.394;2023-04-25T01:03:15;8.00;99.90
38866;DHT22;62686;48.984;8.394;2023-04-25T01:05:47;8.10;99.90
38866;DHT22;62686;48.984;8.394;2023-04-25T01:08:16;8.20;99.90
38866;DHT22;62686;48.984;8.394;2023-04-25T01:10:45;8.20;99.90
38866;DHT22;62686;48.984;8.394;2023-04-25T01:13:14;8.30;99.90
38866;DHT22;62686;48.984;8.394;2023-04-25T01:15:42;8.30;99.90
38866;DHT22;62686;48.984;8.394;2023-04-25T01:18:12;8.20;99.90
38866;DHT22;62686;48.984;8.394;2023-04-25T01:20:41;8.10;99.90
38866;DHT22;62686;48.984;8.394;2023-04-25T01:23:11;8.00;99.90
38866;DHT22;62686;48.984;8.394;2023-04-25T01:25:40;8.00;99.90
38866;DHT22;62686;48.984;8.394;2023-04-25T01:28:09;8.00;99.90
38866;DHT22;62686;48.984;8.394;2023-04-25T01:30:38;8.00;99.90
38866;DHT22;62686;48.984;8.394;2023-04-25T01:33:08;8.00;99.90
38866;DHT22;62686;48.984;8.394;2023-04-25T01:35:36;8.20;99.90
38866;DHT22;62686;48.984;8.394;2023-04-25T01:38:08;8.10;99.90
38866;DHT22;62686;48.984;8.394;2023-04-25T01:40:40;8.10;99.90
38866;DHT22;62686;48.984;8.394;2023-04-25T01:43:08;8.10;99.90
38866;DHT22;62686;48.984;8.394;2023-04-25T01:45:39;8.00;99.90
38866;DHT22;62686;48.984;8.394;2023-04-25T01:48:08;8.00;99.90
38866;DHT22;62686;48.984;8.394;2023-04-25T01:50:37;8.10;99.90
38866;DHT22;62686;48.984;8.394;2023-04-25T01:53:06;8.10;99.90
38866;DHT22;62686;48.984;8.394;2023-04-25T01:55:36;8.10;99.90
38866;DHT22;62686;48.984;8.394;2023-04-25T01:58:08;8.20;99.90
38866;DHT22;62686;48.984;8.394;2023-04-25T02:00:40;8.20;99.90
38866;DHT22;62686;48.984;8.394;2023-04-25T02:03:08;8.20;99.90
38866;DHT22;62686;48.984;8.394;2023-04-25T02:05:38;8.20;99.90
38866;DHT22;62686;48.984;8.394;2023-04-25T02:08:10;8.20;99.90
38866;DHT22;62686;48.984;8.394;2023-04-25T02:10:39;8.20;99.90
38866;DHT22;62686;48.984;8.394;2023-04-25T02:13:09;8.20;99.90
38866;DHT22;62686;48.984;8.394;2023-04-25T02:15:38;8.30;99.90
38866;DHT22;62686;48.984;8.394;2023-04-25T02:20:48;8.40;99.90
38866;DHT22;62686;48.984;8.394;2023-04-25T02:23:19;8.40;99.90
38866;DHT22;62686;48.984;8.394;2023-04-25T02:25:48;8.40;99.90
38866;DHT22;62686;48.984;8.394;2023-04-25T02:28:18;8.40;99.90
38866;DHT22;62686;48.984;8.394;2023-04-25T02:30:46;8.40;99.90
38866;DHT22;62686;48.984;8.394;2023-04-25T02:33:15;8.50;99.90
38866;DHT22;62686;48.984;8.394;2023-04-25T02:35:44;8.50;99.90
38866;DHT22;62686;48.984;8.394;2023-04-25T02:38:13;8.40;99.90
38866;DHT22;62686;48.984;8.394;2023-04-25T02:40:41;8.40;99.90
38866;DHT22;62686;48.984;8.394;2023-04-25T02:43:10;8.40;99.90
38866;DHT22;62686;48.984;8.394;2023-04-25T02:45:42;8.40;99.90
38866;DHT22;62686;48.984;8.394;2023-04-25T02:48:11;8.40;99.90
38866;DHT22;62686;48.984;8.394;2023-04-25T02:50:40;8.40;99.90
38866;DHT22;62686;48.984;8.394;2023-04-25T02:53:09;8.40;99.90
38866;DHT22;62686;48.984;8.394;2023-04-25T02:55:37;8.30;99.90
38866;DHT22;62686;48.984;8.394;2023-04-25T02:58:06;8.20;99.90
38866;DHT22;62686;48.984;8.394;2023-04-25T03:00:35;8.30;99.90
38866;DHT22;62686;48.984;8.394;2023-04-25T03:03:05;8.20;99.90
38866;DHT22;62686;48.984;8.394;2023-04-25T03:05:34;8.20;99.90
38866;DHT22;62686;48.984;8.394;2023-04-25T03:08:03;8.20;99.90
38866;DHT22;62686;48.984;8.394;2023-04-25T03:10:32;8.20;99.90
38866;DHT22;62686;48.984;8.394;2023-04-25T03:13:01;8.10;99.90
38866;DHT22;62686;48.984;8.394;2023-04-25T03:15:31;8.00;99.90
38866;DHT22;62686;48.984;8.394;2023-04-25T03:18:00;8.00;99.90
38866;DHT22;62686;48.984;8.394;2023-04-25T03:20:30;7.90;99.90
38866;DHT22;62686;48.984;8.394;2023-04-25T03:22:59;8.00;99.90
38866;DHT22;62686;48.984;8.394;2023-04-25T03:25:27;8.00;99.90
38866;DHT22;62686;48.984;8.394;2023-04-25T03:27:55;7.90;99.90
38866;DHT22;62686;48.984;8.394;2023-04-25T03:30:27;7.90;99.90
38866;DHT22;62686;48.984;8.394;2023-04-25T03:32:55;7.90;99.90
38866;DHT22;62686;48.984;8.394;2023-04-25T03:35:24;7.90;99.90
38866;DHT22;62686;48.984;8.394;2023-04-25T03:37:54;7.90;99.90
38866;DHT22;62686;48.984;8.394;2023-04-25T03:40:22;7.90;99.90
38866;DHT22;62686;48.984;8.394;2023-04-25T03:42:51;8.00;99.90
38866;DHT22;62686;48.984;8.394;2023-04-25T03:45:20;8.00;99.90
38866;DHT22;62686;48.984;8.394;2023-04-25T03:47:49;8.00;99.90
38866;DHT22;62686;48.984;8.394;2023-04-25T03:50:20;7.90;99.90
38866;DHT22;62686;48.984;8.394;2023-04-25T03:52:48;7.80;99.90
38866;DHT22;62686;48.984;8.394;2023-04-25T03:55:18;7.80;99.90
38866;DHT22;62686;48.984;8.394;2023-04-25T03:57:46;7.80;99.90
38866;DHT22;62686;48.984;8.394;2023-04-25T04:00:15;7.80;99.90
38866;DHT22;62686;48.984;8.394;2023-04-25T04:02:43;7.70;99.90
38866;DHT22;62686;48.984;8.394;2023-04-25T04:05:16;7.80;99.90
38866;DHT22;62686;48.984;8.394;2023-04-25T04:07:45;7.80;99.90
38866;DHT22;62686;48.984;8.394;2023-04-25T04:10:14;7.80;99.90
38866;DHT22;62686;48.984;8.394;2023-04-25T04:12:46;7.90;99.90
38866;DHT22;62686;48.984;8.394;2023-04-25T04:15:14;7.90;99.90
38866;DHT22;62686;48.984;8.394;2023-04-25T04:17:45;7.90;99.90
38866;DHT22;62686;48.984;8.394;2023-04-25T04:20:14;7.90;99.90
38866;DHT22;62686;48.984;8.394;2023-04-25T04:22:42;7.90;99.90
38866;DHT22;62686;48.984;8.394;2023-04-25T04:25:11;7.90;99.90
38866;DHT22;62686;48.984;8.394;2023-04-25T04:27:40;7.90;99.90
38866;DHT22;62686;48.984;8.394;2023-04-25T04:30:11;7.80;99.90
38866;DHT22;62686;48.984;8.394;2023-04-25T04:32:40;7.80;99.90
38866;DHT22;62686;48.984;8.394;2023-04-25T04:35:09;7.80;99.90
38866;DHT22;62686;48.984;8.394;2023-04-25T04:37:38;7.80;99.90
38866;DHT22;62686;48.984;8.394;2023-04-25T04:40:10;7.80;99.90
38866;DHT22;62686;48.984;8.394;2023-04-25T04:42:50;7.80;99.90
38866;DHT22;62686;48.984;8.394;2023-04-25T04:45:27;7.90;99.90
38866;DHT22;62686;48.984;8.394;2023-04-25T04:47:56;7.90;99.90
38866;DHT22;62686;48.984;8.394;2023-04-25T04:50:25;7.90;99.90
38866;DHT22;62686;48.984;8.394;2023-04-25T04:52:54;7.90;99.90
38866;DHT22;62686;48.984;8.394;2023-04-25T04:55:24;8.00;99.90
38866;DHT22;62686;48.984;8.394;2023-04-25T04:57:53;8.00;99.90
38866;DHT22;62686;48.984;8.394;2023-04-25T05:00:22;8.00;99.90
38866;DHT22;62686;48.984;8.394;2023-04-25T05:02:55;8.10;99.90
38866;DHT22;62686;48.984;8.394;2023-04-25T05:05:36;8.20;99.90
38866;DHT22;62686;48.984;8.394;2023-04-25T05:08:16;8.20;99.90
38866;DHT22;62686;48.984;8.394;2023-04-25T05:10:51;8.30;99.90
38866;DHT22;62686;48.984;8.394;2023-04-25T05:13:25;8.30;99.90
38866;DHT22;62686;48.984;8.394;2023-04-25T05:15:55;8.40;99.90
38866;DHT22;62686;48.984;8.394;2023-04-25T05:18:27;8.40;99.90
38866;DHT22;62686;48.984;8.394;2023-04-25T05:20:57;8.40;99.90
38866;DHT22;62686;48.984;8.394;2023-04-25T05:23:30;8.40;99.90
38866;DHT22;62686;48.984;8.394;2023-04-25T05:26:00;8.40;99.90
38866;DHT22;62686;48.984;8.394;2023-04-25T05:28:29;8.40;99.90
38866;DHT22;62686;48.984;8.394;2023-04-25T05:30:58;8.50;99.90
38866;DHT22;62686;48.984;8.394;2023-04-25T05:33:29;8.60;99.90
38866;DHT22;62686;48.984;8.394;2023-04-25T05:39:23;8.80;99.90
38866;DHT22;62686;48.984;8.394;2023-04-25T05:41:52;9.00;99.90
38866;DHT22;62686;48.984;8.394;2023-04-25T05:44:21;9.20;99.90
38866;DHT22;62686;48.984;8.394;2023-04-25T05:46:53;9.30;99.90
38866;DHT22;62686;48.984;8.394;2023-04-25T05:49:27;9.40;99.90
38866;DHT22;62686;48.984;8.394;2023-04-25T05:51:59;9.60;99.90
38866;DHT22;62686;48.984;8.394;2023-04-25T05:54:28;9.80;99.90
38866;DHT22;62686;48.984;8.394;2023-04-25T05:56:57;9.90;99.90
38866;DHT22;62686;48.984;8.394;2023-04-25T05:59:26;10.10;99.90
38866;DHT22;62686;48.984;8.394;2023-04-25T06:01:55;10.10;99.90
38866;DHT22;62686;48.984;8.394;2023-04-25T06:04:27;9.90;99.90
38866;DHT22;62686;48.984;8.394;2023-04-25T06:06:56;9.90;99.90
38866;DHT22;62686;48.984;8.394;2023-04-25T06:09:27;9.70;99.90
38866;DHT22;62686;48.984;8.394;2023-04-25T06:11:55;9.70;99.90
38866;DHT22;62686;48.984;8.394;2023-04-25T06:14:24;9.60;99.90
38866;DHT22;62686;48.984;8.394;2023-04-25T06:16:55;9.60;99.90
38866;DHT22;62686;48.984;8.394;2023-04-25T06:19:26;9.50;99.90
38866;DHT22;62686;48.984;8.394;2023-04-25T06:21:54;9.30;99.90
38866;DHT22;62686;48.984;8.394;2023-04-25T06:24:23;9.20;99.90
38866;DHT22;62686;48.984;8.394;2023-04-25T06:26:51;9.10;99.90
38866;DHT22;62686;48.984;8.394;2023-04-25T06:29:22;9.00;99.90
38866;DHT22;62686;48.984;8.394;2023-04-25T06:31:50;8.90;99.90
38866;DHT22;62686;48.984;8.394;2023-04-25T06:34:20;8.70;99.90
38866;DHT22;62686;48.984;8.394;2023-04-25T06:36:50;8.70;99.90
38866;DHT22;62686;48.984;8.394;2023-04-25T06:39:18;8.50;99.90
38866;DHT22;62686;48.984;8.394;2023-04-25T06:41:46;8.40;99.90
38866;DHT22;62686;48.984;8.394;2023-04-25T06:44:15;8.40;99.90
38866;DHT22;62686;48.984;8.394;2023-04-25T06:46:43;8.30;99.90
38866;DHT22;62686;48.984;8.394;2023-04-25T06:49:11;8.30;99.90
38866;DHT22;62686;48.984;8.394;2023-04-25T06:51:41;8.40;99.90
38866;DHT22;62686;48.984;8.394;2023-04-25T06:54:10;8.50;99.90
38866;DHT22;62686;48.984;8.394;2023-04-25T06:56:39;8.40;99.90
38866;DHT22;62686;48.984;8.394;2023-04-25T06:59:07;8.40;99.90
38866;DHT22;62686;48.984;8.394;2023-04-25T07:01:36;8.50;99.90
38866;DHT22;62686;48.984;8.394;2023-04-25T07:04:04;8.50;99.90
38866;DHT22;62686;48.984;8.394;2023-04-25T07:06:32;8.50;99.90
38866;DHT22;62686;48.984;8.394;2023-04-25T07:09:01;8.60;99.90
38866;DHT22;62686;48.984;8.394;2023-04-25T07:11:31;8.60;99.90
38866;DHT22;62686;48.984;8.394;2023-04-25T07:13:59;8.70;99.90
38866;DHT22;62686;48.984;8.394;2023-04-25T07:16:28;8.90;99.90
38866;DHT22;62686;48.984;8.394;2023-04-25T07:18:56;8.90;99.90
38866;DHT22;62686;48.984;8.394;2023-04-25T07:21:26;9.00;99.90
38866;DHT22;62686;48.984;8.394;2023-04-25T07:23:55;8.90;99.90
38866;DHT22;62686;48.984;8.394;2023-04-25T07:26:23;8.90;99.90
38866;DHT22;62686;48.984;8.394;2023-04-25T07:28:53;8.90;99.90
38866;DHT22;62686;48.984;8.394;2023-04-25T07:31:22;8.90;99.90
38866;DHT22;62686;48.984;8.394;2023-04-25T07:33:50;8.90;99.90
38866;DHT22;62686;48.984;8.394;2023-04-25T07:36:19;9.00;99.90
38866;DHT22;62686;48.984;8.394;2023-04-25T07:38:48;9.00;99.90
38866;DHT22;62686;48.984;8.394;2023-04-25T07:41:17;8.90;99.90
38866;DHT22;62686;48.984;8.394;2023-04-25T07:43:50;8.80;99.90
38866;DHT22;62686;48.984;8.394;2023-04-25T07:46:19;8.80;99.90
38866;DHT22;62686;48.984;8.394;2023-04-25T07:48:48;8.70;99.90
38866;DHT22;62686;48.984;8.394;2023-04-25T07:51:19;8.80;99.90
38866;DHT22;62686;48.984;8.394;2023-04-25T07:53:49;8.80;99.90
38866;DHT22;62686;48.984;8.394;2023-04-25T07:56:17;8.90;99.90
38866;DHT22;62686;48.984;8.394;2023-04-25T07:58:45;9.00;99.90
38866;DHT22;62686;48.984;8.394;2023-04-25T08:01:14;9.00;99.90
38866;DHT22;62686;48.984;8.394;2023-04-25T08:03:44;9.10;99.90
38866;DHT22;62686;48.984;8.394;2023-04-25T08:06:13;9.00;99.90
38866;DHT22;62686;48.984;8.394;2023-04-25T08:08:41;9.00;99.90
38866;DHT22;62686;48.984;8.394;2023-04-25T08:11:09;9.10;99.90
38866;DHT22;62686;48.984;8.394;2023-04-25T08:13:38;9.10;99.90
38866;DHT22;62686;48.984;8.394;2023-04-25T08:16:06;9.20;99.90
38866;DHT22;62686;48.984;8.394;2023-04-25T08:18:35;9.30;99.90
38866;DHT22;62686;48.984;8.394;2023-04-25T08:21:05;9.40;99.90
38866;DHT22;62686;48.984;8.394;2023-04-25T08:23:35;9.50;99.90
38866;DHT22;62686;48.984;8.394;2023-04-25T08:26:05;9.60;99.90
38866;DHT22;62686;48.984;8.394;2023-04-25T08:28:33;9.50;99.90
38866;DHT22;62686;48.984;8.394;2023-04-25T08:31:02;9.40;99.90
38866;DHT22;62686;48.984;8.394;2023-04-25T08:33:30;9.40;99.90
38866;DHT22;62686;48.984;8.394;2023-04-25T08:35:59;9.30;99.90
38866;DHT22;62686;48.984;8.394;2023-04-25T08:38:29;9.40;99.90
38866;DHT22;62686;48.984;8.394;2023-04-25T08:40:59;9.40;99.90
38866;DHT22;62686;48.984;8.394;2023-04-25T08:43:29;9.40;99.90
38866;DHT22;62686;48.984;8.394;2023-04-25T08:45:59;9.60;99.90
38866;DHT22;62686;48.984;8.394;2023-04-25T08:48:28;9.70;99.90
38866;DHT22;62686;48.984;8.394;2023-04-25T08:51:01;9.70;99.90
38866;DHT22;62686;48.984;8.394;2023-04-25T08:53:32;9.80;99.90
38866;DHT22;62686;48.984;8.394;2023-04-25T08:56:01;9.80;99.90
38866;DHT22;62686;48.984;8.394;2023-04-25T08:58:30;9.80;99.90
38866;DHT22;62686;48.984;8.394;2023-04-25T09:01:00;9.90;99.90
38866;DHT22;62686;48.984;8.394;2023-04-25T09:03:29;9.70;99.90
38866;DHT22;62686;48.984;8.394;2023-04-25T09:05:58;9.70;99.90
38866;DHT22;62686;48.984;8.394;2023-04-25T09:08:27;9.70;99.90
38866;DHT22;62686;48.984;8.394;2023-04-25T09:10:56;9.70;99.90
38866;DHT22;62686;48.984;8.394;2023-04-25T09:13:26;9.70;99.90
38866;DHT22;62686;48.984;8.394;2023-04-25T09:15:56;9.60;99.90
38866;DHT22;62686;48.984;8.394;2023-04-25T09:18:25;9.40;99.90
38866;DHT22;62686;48.984;8.394;2023-04-25T09:20:58;9.40;99.90
38866;DHT22;62686;48.984;8.394;2023-04-25T09:23:27;9.20;99.90
38866;DHT22;62686;48.984;8.394;2023-04-25T09:25:57;9.10;99.90
38866;DHT22;62686;48.984;8.394;2023-04-25T09:28:26;9.10;99.90
38866;DHT22;62686;48.984;8.394;2023-04-25T09:30:57;9.10;99.90
38866;DHT22;62686;48.984;8.394;2023-04-25T09:33:29;9.20;99.90
38866;DHT22;62686;48.984;8.394;2023-04-25T09:36:03;9.10;99.90
38866;DHT22;62686;48.984;8.394;2023-04-25T09:38:33;9.10;99.90
38866;DHT22;62686;48.984;8.394;2023-04-25T09:41:09;9.10;99.90
38866;DHT22;62686;48.984;8.394;2023-04-25T09:43:38;9.10;99.90
38866;DHT22;62686;48.984;8.394;2023-04-25T09:46:08;9.10;99.90
38866;DHT22;62686;48.984;8.394;2023-04-25T09:48:38;9.10;99.90
38866;DHT22;62686;48.984;8.394;2023-04-25T09:51:07;9.10;99.90
38866;DHT22;62686;48.984;8.394;2023-04-25T09:53:37;8.90;99.90
38866;DHT22;62686;48.984;8.394;2023-04-25T09:56:10;8.60;99.90
38866;DHT22;62686;48.984;8.394;2023-04-25T09:58:39;8.30;99.90
38866;DHT22;62686;48.984;8.394;2023-04-25T10:01:09;8.00;99.90
38866;DHT22;62686;48.984;8.394;2023-04-25T10:03:39;7.70;99.90
38866;DHT22;62686;48.984;8.394;2023-04-25T10:06:12;7.60;99.90
38866;DHT22;62686;48.984;8.394;2023-04-25T10:08:43;7.60;99.90
38866;DHT22;62686;48.984;8.394;2023-04-25T10:11:14;7.60;99.90
38866;DHT22;62686;48.984;8.394;2023-04-25T10:13:43;7.60;99.90
38866;DHT22;62686;48.984;8.394;2023-04-25T10:16:13;7.70;99.90
38866;DHT22;62686;48.984;8.394;2023-04-25T10:18:41;7.70;99.90
38866;DHT22;62686;48.984;8.394;2023-04-25T10:21:10;7.80;99.90
38866;DHT22;62686;48.984;8.394;2023-04-25T10:23:39;7.90;99.90
38866;DHT22;62686;48.984;8.394;2023-04-25T10:26:08;8.10;99.90
38866;DHT22;62686;48.984;8.394;2023-04-25T10:28:59;8.20;99.90
38866;DHT22;62686;48.984;8.394;2023-04-25T10:31:29;8.50;99.90
38866;DHT22;62686;48.984;8.394;2023-04-25T10:33:59;8.70;99.90
38866;DHT22;62686;48.984;8.394;2023-04-25T10:36:31;8.80;99.90
38866;DHT22;62686;48.984;8.394;2023-04-25T10:39:04;9.10;99.90
38866;DHT22;62686;48.984;8.394;2023-04-25T10:41:46;9.40;99.90
38866;DHT22;62686;48.984;8.394;2023-04-25T10:44:16;9.50;99.90
38866;DHT22;62686;48.984;8.394;2023-04-25T10:46:45;9.70;99.90
38866;DHT22;62686;48.984;8.394;2023-04-25T10:49:29;9.80;99.90
38866;DHT22;62686;48.984;8.394;2023-04-25T10:52:14;9.80;99.90
38866;DHT22;62686;48.984;8.394;2023-04-25T10:54:46;9.70;99.90
38866;DHT22;62686;48.984;8.394;2023-04-25T10:57:29;9.50;99.90
38866;DHT22;62686;48.984;8.394;2023-04-25T11:00:01;9.60;99.90
38866;DHT22;62686;48.984;8.394;2023-04-25T11:02:37;9.60;99.90
38866;DHT22;62686;48.984;8.394;2023-04-25T11:05:06;9.70;99.90
38866;DHT22;62686;48.984;8.394;2023-04-25T11:07:38;9.80;99.90
38866;DHT22;62686;48.984;8.394;2023-04-25T11:10:10;9.80;99.90
38866;DHT22;62686;48.984;8.394;2023-04-25T11:12:41;9.70;99.90
38866;DHT22;62686;48.984;8.394;2023-04-25T11:15:11;9.80;99.90
38866;DHT22;62686;48.984;8.394;2023-04-25T11:17:39;9.70;99.90
38866;DHT22;62686;48.984;8.394;2023-04-25T11:20:08;9.70;99.90
38866;DHT22;62686;48.984;8.394;2023-04-25T11:22:38;9.50;99.90
38866;DHT22;62686;48.984;8.394;2023-04-25T11:25:10;9.40;99.90
38866;DHT22;62686;48.984;8.394;2023-04-25T11:27:39;9.20;99.90
38866;DHT22;62686;48.984;8.394;2023-04-25T11:30:19;9.10;99.90
38866;DHT22;62686;48.984;8.394;2023-04-25T11:32:48;9.00;99.90
38866;DHT22;62686;48.984;8.394;2023-04-25T11:35:16;9.00;99.90
38866;DHT22;62686;48.984;8.394;2023-04-25T11:37:44;9.00;99.90
38866;DHT22;62686;48.984;8.394;2023-04-25T11:40:13;8.90;99.90
38866;DHT22;62686;48.984;8.394;2023-04-25T11:42:45;8.90;99.90
38866;DHT22;62686;48.984;8.394;2023-04-25T11:45:14;8.90;99.90
38866;DHT22;62686;48.984;8.394;2023-04-25T11:47:44;9.00;99.90
38866;DHT22;62686;48.984;8.394;2023-04-25T11:50:13;9.20;99.90
38866;DHT22;62686;48.984;8.394;2023-04-25T11:52:43;9.40;99.90
38866;DHT22;62686;48.984;8.394;2023-04-25T11:55:14;9.50;99.90
38866;DHT22;62686;48.984;8.394;2023-04-25T11:57:44;9.50;99.90
38866;DHT22;62686;48.984;8.394;2023-04-25T12:00:14;9.60;99.90
38866;DHT22;62686;48.984;8.394;2023-04-25T12:02:47;9.60;99.90
38866;DHT22;62686;48.984;8.394;2023-04-25T12:05:15;9.50;99.90
38866;DHT22;62686;48.984;8.394;2023-04-25T12:07:47;9.50;99.90
38866;DHT22;62686;48.984;8.394;2023-04-25T12:10:17;9.40;99.90
38866;DHT22;62686;48.984;8.394;2023-04-25T12:12:47;9.40;99.90
38866;DHT22;62686;48.984;8.394;2023-04-25T12:15:17;9.40;99.90
38866;DHT22;62686;48.984;8.394;2023-04-25T12:17:49;9.40;99.90
38866;DHT22;62686;48.984;8.394;2023-04-25T12:20:19;9.60;99.90
38866;DHT22;62686;48.984;8.394;2023-04-25T12:22:50;9.70;99.90
38866;DHT22;62686;48.984;8.394;2023-04-25T12:25:35;10.00;99.90
38866;DHT22;62686;48.984;8.394;2023-04-25T12:28:11;10.20;99.90
38866;DHT22;62686;48.984;8.394;2023-04-25T12:30:59;10.40;99.90
38866;DHT22;62686;48.984;8.394;2023-04-25T12:33:32;10.80;99.90
38866;DHT22;62686;48.984;8.394;2023-04-25T12:36:01;11.20;99.90
38866;DHT22;62686;48.984;8.394;2023-04-25T12:38:36;11.40;99.90
38866;DHT22;62686;48.984;8.394;2023-04-25T12:41:05;11.60;99.90
38866;DHT22;62686;48.984;8.394;2023-04-25T12:43:34;11.60;99.90
38866;DHT22;62686;48.984;8.394;2023-04-25T12:46:03;11.90;99.90
38866;DHT22;62686;48.984;8.394;2023-04-25T12:48:32;12.10;99.90
38866;DHT22;62686;48.984;8.394;2023-04-25T12:51:01;12.30;99.90
38866;DHT22;62686;48.984;8.394;2023-04-25T12:53:29;12.20;99.90
38866;DHT22;62686;48.984;8.394;2023-04-25T12:55:59;12.20;99.90
38866;DHT22;62686;48.984;8.394;2023-04-25T12:58:27;12.20;99.90
38866;DHT22;62686;48.984;8.394;2023-04-25T13:00:56;12.00;99.90
38866;DHT22;62686;48.984;8.394;2023-04-25T13:03:24;11.90;99.90
38866;DHT22;62686;48.984;8.394;2023-04-25T13:05:54;11.90;99.90
38866;DHT22;62686;48.984;8.394;2023-04-25T13:08:24;12.00;99.90
38866;DHT22;62686;48.984;8.394;2023-04-25T13:10:52;11.90;99.90
38866;DHT22;62686;48.984;8.394;2023-04-25T13:13:20;12.10;99.90
38866;DHT22;62686;48.984;8.394;2023-04-25T13:15:51;12.30;99.90
38866;DHT22;62686;48.984;8.394;2023-04-25T13:18:20;12.70;99.90
38866;DHT22;62686;48.984;8.394;2023-04-25T13:20:48;13.10;99.90
38866;DHT22;62686;48.984;8.394;2023-04-25T13:23:18;13.30;99.90
38866;DHT22;62686;48.984;8.394;2023-04-25T13:25:47;13.60;99.90
38866;DHT22;62686;48.984;8.394;2023-04-25T13:28:15;14.10;99.90
38866;DHT22;62686;48.984;8.394;2023-04-25T13:30:44;14.10;99.90
38866;DHT22;62686;48.984;8.394;2023-04-25T13:33:13;13.90;99.90
38866;DHT22;62686;48.984;8.394;2023-04-25T13:35:42;13.60;99.90
38866;DHT22;62686;48.984;8.394;2023-04-25T13:38:13;13.70;99.90
38866;DHT22;62686;48.984;8.394;2023-04-25T13:40:43;14.10;99.90
38866;DHT22;62686;48.984;8.394;2023-04-25T13:43:12;15.20;99.90
38866;DHT22;62686;48.984;8.394;2023-04-25T13:45:41;16.00;99.90
38866;DHT22;62686;48.984;8.394;2023-04-25T13:48:10;16.50;99.90
38866;DHT22;62686;48.984;8.394;2023-04-25T13:53:14;17.20;99.90
38866;DHT22;62686;48.984;8.394;2023-04-25T13:55:46;17.90;99.90
38866;DHT22;62686;48.984;8.394;2023-04-25T13:58:16;17.70;99.90
38866;DHT22;62686;48.984;8.394;2023-04-25T14:00:52;17.50;99.90
38866;DHT22;62686;48.984;8.394;2023-04-25T14:06:06;17.50;99.90
38866;DHT22;62686;48.984;8.394;2023-04-25T14:08:49;17.20;99.90
38866;DHT22;62686;48.984;8.394;2023-04-25T14:11:20;17.10;99.90
38866;DHT22;62686;48.984;8.394;2023-04-25T14:13:52;17.40;99.90
38866;DHT22;62686;48.984;8.394;2023-04-25T14:16:26;18.50;99.90
38866;DHT22;62686;48.984;8.394;2023-04-25T14:18:58;18.70;99.90
38866;DHT22;62686;48.984;8.394;2023-04-25T14:21:30;17.80;99.90
38866;DHT22;62686;48.984;8.394;2023-04-25T14:24:10;17.10;99.90
38866;DHT22;62686;48.984;8.394;2023-04-25T14:26:59;16.80;99.90
38866;DHT22;62686;48.984;8.394;2023-04-25T14:29:32;16.50;99.90
38866;DHT22;62686;48.984;8.394;2023-04-25T14:32:02;16.60;99.90
38866;DHT22;62686;48.984;8.394;2023-04-25T14:34:32;16.70;99.90
38866;DHT22;62686;48.984;8.394;2023-04-25T14:37:03;16.50;99.90
38866;DHT22;62686;48.984;8.394;2023-04-25T14:39:34;17.10;99.90
38866;DHT22;62686;48.984;8.394;2023-04-25T14:42:06;17.50;99.90
38866;DHT22;62686;48.984;8.394;2023-04-25T14:44:38;17.80;99.90
38866;DHT22;62686;48.984;8.394;2023-04-25T14:47:09;17.00;99.90
38866;DHT22;62686;48.984;8.394;2023-04-25T14:49:39;16.40;99.90
38866;DHT22;62686;48.984;8.394;2023-04-25T14:52:10;15.80;99.90
38866;DHT22;62686;48.984;8.394;2023-04-25T14:54:38;15.60;99.90
38866;DHT22;62686;48.984;8.394;2023-04-25T14:57:09;15.40;99.90
38866;DHT22;62686;48.984;8.394;2023-04-25T14:59:38;15.10;99.90
38866;DHT22;62686;48.984;8.394;2023-04-25T15:02:06;15.10;99.90
38866;DHT22;62686;48.984;8.394;2023-04-25T15:04:35;14.90;99.90
38866;DHT22;62686;48.984;8.394;2023-04-25T15:07:04;15.00;99.90
38866;DHT22;62686;48.984;8.394;2023-04-25T15:09:34;14.90;99.90
38866;DHT22;62686;48.984;8.394;2023-04-25T15:12:04;14.70;99.90
38866;DHT22;62686;48.984;8.394;2023-04-25T15:14:34;14.60;99.90
38866;DHT22;62686;48.984;8.394;2023-04-25T15:17:03;13.80;99.90
38866;DHT22;62686;48.984;8.394;2023-04-25T15:19:32;13.50;99.90
38866;DHT22;62686;48.984;8.394;2023-04-25T15:22:01;13.30;99.90
38866;DHT22;62686;48.984;8.394;2023-04-25T15:27:21;12.60;99.90
38866;DHT22;62686;48.984;8.394;2023-04-25T15:29:51;12.50;99.90
38866;DHT22;62686;48.984;8.394;2023-04-25T15:32:19;12.40;99.90
38866;DHT22;62686;48.984;8.394;2023-04-25T15:34:49;12.20;99.90
38866;DHT22;62686;48.984;8.394;2023-04-25T15:37:18;11.90;99.90
38866;DHT22;62686;48.984;8.394;2023-04-25T15:39:46;11.50;99.90
38866;DHT22;62686;48.984;8.394;2023-04-25T15:42:17;11.10;99.90
38866;DHT22;62686;48.984;8.394;2023-04-25T15:44:45;10.90;99.90
38866;DHT22;62686;48.984;8.394;2023-04-25T15:47:15;10.60;99.90
38866;DHT22;62686;48.984;8.394;2023-04-25T15:49:43;10.30;99.90
38866;DHT22;62686;48.984;8.394;2023-04-25T15:52:13;10.10;99.90
38866;DHT22;62686;48.984;8.394;2023-04-25T15:54:41;9.80;99.90
38866;DHT22;62686;48.984;8.394;2023-04-25T15:57:09;9.50;99.90
38866;DHT22;62686;48.984;8.394;2023-04-25T15:59:38;9.30;99.90
38866;DHT22;62686;48.984;8.394;2023-04-25T16:02:07;9.30;99.90
38866;DHT22;62686;48.984;8.394;2023-04-25T16:04:37;9.40;99.90
38866;DHT22;62686;48.984;8.394;2023-04-25T16:07:07;9.40;99.90
38866;DHT22;62686;48.984;8.394;2023-04-25T16:09:35;9.50;99.90
38866;DHT22;62686;48.984;8.394;2023-04-25T16:12:04;9.30;99.90
38866;DHT22;62686;48.984;8.394;2023-04-25T16:14:33;9.30;99.90
38866;DHT22;62686;48.984;8.394;2023-04-25T16:17:01;9.10;99.90